Time;durP1;ratioP1;P1;durP2;ratioP2;P2;SDS_P1;SDS_P2;PMS_P1;PMS_P2;Temp;Humidity;BMP_temperature;BMP_pressure;BME280_temperature;BME280_humidity;BME280_pressure;Samples;Min_cycle;Max_cycle;Signal;HPM_P1;HPM_P2
2022/01/22 00:01:16;;;;;;;3.67;3.37;;;3.10;61.90;;;;;;5011124;28;20491;-55
2022/01/22 00:03:43;;;;;;;3.70;3.50;;;3.10;61.90;;;;;;5009260;28;20931;-54
2022/01/22 00:06:10;;;;;;;3.23;3.03;;;3.10;61.90;;;;;;5012990;28;20971;-55
2022/01/22 00:08:37;;;;;;;2.73;2.63;;;3.10;61.90;;;;;;5013078;28;20474;-56
2022/01/22 00:11:03;;;;;;;3.90;3.30;;;3.20;61.80;;;;;;5014782;28;20516;-54
2022/01/22 00:16:16;;;;;;;3.53;3.23;;;3.20;55.90;;;;;;5007821;28;20470;-54
2022/01/22 00:18:43;;;;;;;3.43;3.20;;;3.20;55.10;;;;;;5009759;28;20517;-54
2022/01/22 00:21:09;;;;;;;3.80;3.50;;;3.20;52.20;;;;;;5014448;28;20500;-55
2022/01/22 00:23:38;;;;;;;3.77;3.47;;;3.20;53.80;;;;;;5017472;28;20960;-54
2022/01/22 00:26:05;;;;;;;3.90;3.70;;;3.20;54.50;;;;;;5018611;28;20483;-53
2022/01/22 00:28:31;;;;;;;3.50;3.30;;;3.20;52.80;;;;;;5012548;28;20495;-55
2022/01/22 00:30:58;;;;;;;3.73;3.53;;;3.20;61.90;;;;;;5011227;28;20479;-55
2022/01/22 00:33:26;;;;;;;3.70;3.50;;;3.20;61.90;;;;;;5019828;28;20474;-54
2022/01/22 00:35:53;;;;;;;3.50;3.30;;;3.20;53.80;;;;;;5012099;28;20533;-55
2022/01/22 00:38:19;;;;;;;3.17;2.97;;;3.20;61.90;;;;;;5014314;28;20519;-54
2022/01/22 00:40:50;;;;;;;3.43;3.07;;;3.20;55.60;;;;;;5010352;28;20462;-55
2022/01/22 00:43:17;;;;;;;3.20;3.00;;;3.20;58.30;;;;;;5013140;28;21030;-55
2022/01/22 00:45:44;;;;;;;3.70;3.40;;;3.20;55.70;;;;;;5012464;28;20523;-53
2022/01/22 00:48:10;;;;;;;4.07;3.77;;;3.20;55.00;;;;;;5010598;28;20502;-55
2022/01/22 00:50:38;;;;;;;3.67;3.57;;;3.20;56.40;;;;;;5015990;28;21025;-55
2022/01/22 00:53:05;;;;;;;3.67;3.47;;;3.30;52.90;;;;;;5021125;28;20503;-53
2022/01/22 00:55:31;;;;;;;3.77;3.47;;;3.30;57.80;;;;;;5014639;28;20482;-53
2022/01/22 00:57:58;;;;;;;3.43;3.23;;;3.30;49.50;;;;;;5014023;28;20502;-55
2022/01/22 01:00:24;;;;;;;3.70;3.50;;;3.30;59.20;;;;;;5012216;28;20884;-53
2022/01/22 01:02:51;;;;;;;3.50;3.30;;;3.30;61.70;;;;;;5016748;28;20491;-55
2022/01/22 01:05:18;;;;;;;3.70;3.50;;;3.30;61.90;;;;;;5008342;28;20989;-53
2022/01/22 01:07:46;;;;;;;2.93;2.83;;;3.30;61.90;;;;;;5016320;28;20521;-54
2022/01/22 01:10:15;;;;;;;4.60;4.30;;;3.30;61.80;;;;;;5012742;28;20497;-56
2022/01/22 01:12:42;;;;;;;3.97;3.67;;;3.30;61.90;;;;;;5011525;28;20463;-54
2022/01/22 01:15:21;;;;;;;3.20;3.10;;;3.30;61.80;;;;;;5006887;28;20460;-54
2022/01/22 01:18:05;;;;;;;3.27;3.17;;;3.30;61.90;;;;;;5002141;28;20467;-53
2022/01/22 01:34:18;;;;;;;3.30;3.20;;;3.40;61.90;;;;;;5012071;28;20452;-54
2022/01/22 01:36:47;;;;;;;4.07;3.33;;;3.40;61.90;;;;;;5010415;28;20483;-54
2022/01/22 01:39:19;;;;;;;3.57;3.37;;;3.40;67.60;;;;;;5013595;28;20558;-55
2022/01/22 01:41:52;;;;;;;3.27;3.17;;;3.40;64.10;;;;;;5011856;28;20459;-55
2022/01/22 01:44:19;;;;;;;2.63;2.53;;;3.40;67.30;;;;;;5009748;28;20487;-55
2022/01/22 01:46:47;;;;;;;2.67;2.53;;;3.40;65.10;;;;;;5007958;28;20971;-55
2022/01/22 01:49:14;;;;;;;3.53;3.33;;;3.40;64.70;;;;;;5010746;28;20460;-54
2022/01/22 01:51:41;;;;;;;2.80;2.70;;;3.40;64.50;;;;;;5008070;28;21365;-55
2022/01/22 01:54:24;;;;;;;2.83;2.73;;;3.40;68.40;;;;;;5011220;28;21046;-55
2022/01/22 01:59:38;;;;;;;2.83;2.73;;;3.40;66.80;;;;;;5004568;28;20446;-55
2022/01/22 02:02:04;;;;;;;2.73;2.63;;;3.40;73.80;;;;;;5003066;28;20491;-55
2022/01/22 02:04:31;;;;;;;2.67;2.57;;;3.40;75.20;;;;;;5010272;28;20483;-54
2022/01/22 02:06:58;;;;;;;2.67;2.57;;;3.30;79.90;;;;;;5006410;28;20640;-54
2022/01/22 02:09:24;;;;;;;2.10;2.03;;;3.30;76.60;;;;;;5012400;28;20827;-55
2022/01/22 02:12:00;;;;;;;2.43;2.23;;;3.30;76.00;;;;;;5006836;28;20484;-55
2022/01/22 02:25:29;;;;;;;3.23;3.03;;;3.30;78.50;;;;;;5012230;28;20514;-55
2022/01/22 02:27:55;;;;;;;3.10;2.90;;;3.30;84.70;;;;;;5009287;28;21030;-54
2022/01/22 02:30:27;;;;;;;3.17;2.90;;;3.30;82.80;;;;;;5011125;28;20518;-54
2022/01/22 02:33:08;;;;;;;2.80;2.60;;;3.30;89.40;;;;;;5011293;28;20474;-55
2022/01/22 02:35:42;;;;;;;2.70;2.60;;;3.30;83.10;;;;;;5010635;28;20558;-54
2022/01/22 02:38:16;;;;;;;2.53;2.17;;;3.30;82.80;;;;;;5008757;28;20463;-55
2022/01/22 02:40:46;;;;;;;2.03;1.93;;;3.40;82.90;;;;;;5010641;28;20484;-54
2022/01/22 02:43:13;;;;;;;1.90;1.80;;;3.30;84.90;;;;;;5006483;28;20484;-55
2022/01/22 02:45:40;;;;;;;2.57;2.37;;;3.30;88.50;;;;;;5004316;28;20875;-55
2022/01/22 02:48:07;;;;;;;3.10;1.90;;;3.30;93.10;;;;;;5010922;28;20467;-54
2022/01/22 02:50:34;;;;;;;2.53;2.43;;;3.30;93.70;;;;;;5005381;28;20551;-54
2022/01/22 02:53:03;;;;;;;2.20;2.10;;;3.30;95.80;;;;;;5008990;28;20538;-54
2022/01/22 02:55:31;;;;;;;2.30;2.20;;;3.30;99.90;;;;;;5005838;28;20474;-54
2022/01/22 02:57:58;;;;;;;1.90;1.80;;;3.20;99.90;;;;;;5007795;28;20463;-54
2022/01/22 03:00:26;;;;;;;2.10;2.00;;;3.30;99.90;;;;;;5006524;28;21203;-53
2022/01/22 03:02:53;;;;;;;2.60;2.40;;;3.30;99.90;;;;;;5008564;28;20495;-54
2022/01/22 03:05:21;;;;;;;2.63;2.53;;;3.30;99.90;;;;;;5010386;28;21062;-54
2022/01/22 03:07:51;;;;;;;2.50;2.30;;;3.20;99.90;;;;;;5010079;28;21027;-53
2022/01/22 03:10:21;;;;;;;2.73;2.63;;;3.20;99.90;;;;;;5012182;28;20448;-54
2022/01/22 03:13:06;;;;;;;2.27;2.13;;;3.10;99.90;;;;;;5008857;28;20456;-53
2022/01/22 03:15:51;;;;;;;2.57;2.37;;;3.00;99.90;;;;;;5016250;28;20459;-56
2022/01/22 03:18:22;;;;;;;2.97;2.20;;;3.00;99.90;;;;;;5004999;28;20486;-54
2022/01/22 03:21:06;;;;;;;3.03;2.47;;;2.90;99.90;;;;;;5001888;28;20464;-55
2022/01/22 03:29:05;;;;;;;2.93;2.70;;;2.70;99.90;;;;;;5001940;28;20462;-54
2022/01/22 03:31:33;;;;;;;2.10;2.00;;;2.70;99.40;;;;;;5004906;28;20533;-55
2022/01/22 03:33:59;;;;;;;3.57;2.07;;;2.60;99.90;;;;;;5008967;28;20542;-54
2022/01/22 03:36:30;;;;;;;1.87;1.67;;;2.50;94.90;;;;;;5006162;28;20515;-55
2022/01/22 03:38:56;;;;;;;2.43;2.03;;;2.50;89.60;;;;;;5016576;28;20495;-55
2022/01/22 03:41:24;;;;;;;1.70;1.70;;;2.50;94.10;;;;;;5007893;28;21051;-55
2022/01/22 03:43:51;;;;;;;4.30;2.40;;;2.40;93.40;;;;;;5005220;28;20468;-55
2022/01/22 03:46:20;;;;;;;2.17;2.03;;;2.30;91.00;;;;;;5005973;28;20579;-55
2022/01/22 03:48:47;;;;;;;2.13;2.03;;;2.30;88.60;;;;;;5004811;28;20559;-55
2022/01/22 03:51:13;;;;;;;2.40;2.20;;;2.30;81.00;;;;;;5010031;28;21016;-55
2022/01/22 03:53:40;;;;;;;5.80;2.37;;;2.20;78.50;;;;;;5007256;28;20439;-56
2022/01/22 03:56:07;;;;;;;3.00;2.43;;;2.20;69.10;;;;;;5012644;28;20518;-55
2022/01/22 03:58:38;;;;;;;2.80;1.77;;;2.20;70.70;;;;;;5014532;28;20459;-55
2022/01/22 04:01:52;;;;;;;2.50;2.20;;;2.20;75.20;;;;;;5011875;28;20929;-55
2022/01/22 04:04:16;;;;;;;2.00;1.90;;;2.20;62.00;;;;;;5011406;28;20855;-55
2022/01/22 04:07:19;;;;;;;2.43;2.00;;;2.10;64.70;;;;;;5012547;28;20482;-55
2022/01/22 04:09:45;;;;;;;2.20;1.97;;;2.10;76.40;;;;;;5011747;28;20460;-55
2022/01/22 04:12:14;;;;;;;1.87;1.77;;;2.00;70.00;;;;;;5014075;28;20898;-55
2022/01/22 04:14:47;;;;;;;2.03;1.73;;;2.00;65.00;;;;;;5014302;28;20460;-55
2022/01/22 04:17:24;;;;;;;2.40;2.07;;;2.00;69.30;;;;;;5013824;28;21013;-55
2022/01/22 04:25:24;;;;;;;5.47;1.90;;;1.90;60.60;;;;;;5014403;28;20464;-55
2022/01/22 04:27:53;;;;;;;2.30;1.90;;;1.90;63.60;;;;;;5009619;28;20567;-54
2022/01/22 04:30:20;;;;;;;2.03;1.90;;;1.90;62.00;;;;;;5006699;28;20467;-54
2022/01/22 04:32:47;;;;;;;5.93;2.47;;;2.00;62.00;;;;;;5012371;28;20538;-55
2022/01/22 04:35:15;;;;;;;2.57;2.37;;;2.10;57.00;;;;;;5015525;28;20896;-54
2022/01/22 04:37:41;;;;;;;2.40;1.77;;;2.10;59.00;;;;;;5013240;28;20514;-54
2022/01/22 04:40:09;;;;;;;2.00;1.87;;;2.20;62.00;;;;;;5013298;28;20499;-55
2022/01/22 04:42:38;;;;;;;2.70;1.80;;;2.20;69.60;;;;;;5010477;28;20977;-55
2022/01/22 04:45:12;;;;;;;1.97;1.87;;;2.30;62.00;;;;;;5014253;28;20482;-55
2022/01/22 04:47:44;;;;;;;1.47;1.37;;;2.30;62.00;;;;;;5008183;28;20482;-55
2022/01/22 04:55:41;;;;;;;9.73;2.20;;;2.30;81.50;;;;;;5026430;28;20895;-55
2022/01/22 04:58:08;;;;;;;2.60;1.47;;;2.30;85.10;;;;;;5012329;28;20944;-55
2022/01/22 05:00:37;;;;;;;5.97;1.70;;;2.20;86.00;;;;;;5010273;28;20597;-55
2022/01/22 05:03:05;;;;;;;2.23;1.77;;;2.20;85.60;;;;;;5012481;28;20495;-54
2022/01/22 05:05:32;;;;;;;1.80;1.70;;;2.20;92.50;;;;;;5018548;28;20585;-54
2022/01/22 05:08:00;;;;;;;6.27;2.13;;;2.20;95.00;;;;;;5012635;28;20487;-55
2022/01/22 05:10:27;;;;;;;2.67;2.00;;;2.20;94.70;;;;;;5007392;28;20491;-54
2022/01/22 05:12:53;;;;;;;3.53;1.80;;;2.20;99.90;;;;;;5012283;28;20501;-55
2022/01/22 05:15:20;;;;;;;1.93;1.70;;;2.20;98.00;;;;;;5013139;28;20537;-55
2022/01/22 05:17:48;;;;;;;3.70;2.10;;;2.30;98.70;;;;;;5017048;28;20546;-55
2022/01/22 05:20:20;;;;;;;3.20;1.60;;;2.20;99.90;;;;;;5009379;28;20468;-55
2022/01/22 05:22:56;;;;;;;4.70;1.97;;;2.10;99.90;;;;;;5009858;28;20471;-55
2022/01/22 05:25:29;;;;;;;1.83;1.67;;;2.10;99.90;;;;;;5011949;28;20582;-55
2022/01/22 05:28:07;;;;;;;1.87;1.70;;;2.00;99.90;;;;;;5013167;28;20466;-55
2022/01/22 05:30:52;;;;;;;3.07;2.17;;;2.00;99.90;;;;;;5010541;28;20470;-55
2022/01/22 05:36:54;;;;;;;4.30;1.63;;;1.90;99.90;;;;;;5009853;28;20456;-55
2022/01/22 05:39:01;;;;;;;3.03;2.07;;;1.80;99.90;;;;;;5013022;28;20450;-55
2022/01/22 05:41:28;;;;;;;3.97;2.20;;;1.80;99.90;;;;;;5004680;28;20456;-55
2022/01/22 05:43:55;;;;;;;6.57;1.70;;;1.80;99.90;;;;;;5010707;28;20492;-55
2022/01/22 05:46:21;;;;;;;1.90;1.80;;;1.70;99.90;;;;;;5008952;28;20573;-54
2022/01/22 05:48:48;;;;;;;4.50;1.83;;;1.70;99.90;;;;;;5009762;28;21019;-55
2022/01/22 05:51:16;;;;;;;2.10;1.90;;;1.70;99.90;;;;;;5005865;28;20506;-55
2022/01/22 05:53:56;;;;;;;2.17;1.87;;;1.60;99.90;;;;;;5011038;28;20463;-55
2022/01/22 06:01:52;;;;;;;3.73;2.07;;;1.50;99.90;;;;;;5009945;28;20999;-48
2022/01/22 06:04:19;;;;;;;6.30;2.37;;;1.50;99.90;;;;;;5003175;28;20878;-48
2022/01/22 06:06:45;;;;;;;3.00;1.90;;;1.40;99.90;;;;;;5003949;28;20583;-47
2022/01/22 06:09:12;;;;;;;4.97;2.27;;;1.40;99.90;;;;;;5005385;28;20496;-48
2022/01/22 06:11:52;;;;;;;3.80;1.83;;;1.30;99.90;;;;;;5000569;28;20495;-48
2022/01/22 06:14:20;;;;;;;1.87;1.77;;;1.40;99.90;;;;;;5014610;28;20466;-48
2022/01/22 06:16:47;;;;;;;1.87;1.73;;;1.40;99.90;;;;;;5007708;28;20507;-48
2022/01/22 06:19:14;;;;;;;3.20;2.90;;;1.40;99.90;;;;;;5014048;28;20495;-48
2022/01/22 06:21:40;;;;;;;4.10;2.90;;;1.50;99.90;;;;;;5005589;28;20500;-48
2022/01/22 06:24:07;;;;;;;3.07;2.30;;;1.50;99.90;;;;;;5003699;28;20552;-48
2022/01/22 06:26:35;;;;;;;3.77;2.83;;;1.50;99.90;;;;;;5002638;28;20611;-48
2022/01/22 06:29:02;;;;;;;2.30;2.20;;;1.50;99.90;;;;;;5000833;28;20459;-48
2022/01/22 06:31:30;;;;;;;3.10;2.90;;;1.50;99.90;;;;;;5006197;28;20470;-48
2022/01/22 06:33:58;;;;;;;5.93;2.70;;;1.60;99.90;;;;;;5008966;28;20546;-47
2022/01/22 06:36:24;;;;;;;2.93;2.63;;;1.50;99.90;;;;;;5009538;28;20471;-47
2022/01/22 06:38:56;;;;;;;2.30;2.20;;;1.50;99.90;;;;;;5010435;28;20945;-47
2022/01/22 06:44:07;;;;;;;3.63;2.80;;;1.40;99.90;;;;;;5003071;28;20517;-47
2022/01/22 06:46:35;;;;;;;4.20;2.90;;;1.40;99.90;;;;;;5002763;28;20583;-49
2022/01/22 06:49:01;;;;;;;3.23;2.83;;;1.50;99.90;;;;;;5012716;28;20543;-48
2022/01/22 06:51:28;;;;;;;3.90;2.97;;;1.40;99.90;;;;;;5009496;28;20498;-48
2022/01/22 06:53:55;;;;;;;3.03;2.57;;;1.40;99.90;;;;;;5011257;28;20533;-48
2022/01/22 06:56:24;;;;;;;3.57;2.20;;;1.40;99.90;;;;;;5001163;28;20586;-47
2022/01/22 06:58:51;;;;;;;3.33;2.63;;;1.40;99.90;;;;;;5012377;28;20965;-47
2022/01/22 07:01:17;;;;;;;4.80;2.80;;;1.40;99.90;;;;;;5006297;28;20546;-47
2022/01/22 07:03:45;;;;;;;3.47;2.80;;;1.30;99.90;;;;;;5002330;28;20900;-47
2022/01/22 07:06:12;;;;;;;4.47;3.00;;;1.30;99.90;;;;;;5009887;28;20594;-48
2022/01/22 07:08:38;;;;;;;2.40;2.20;;;1.30;99.90;;;;;;5008351;28;20487;-48
2022/01/22 07:11:06;;;;;;;6.00;3.10;;;1.30;99.90;;;;;;5007317;28;20503;-46
2022/01/22 07:13:32;;;;;;;2.97;2.30;;;1.30;99.90;;;;;;5010051;28;20571;-47
2022/01/22 07:15:59;;;;;;;3.30;2.60;;;1.40;99.90;;;;;;5008988;28;21078;-48
2022/01/22 07:18:28;;;;;;;3.80;2.53;;;1.40;99.90;;;;;;5007492;28;20581;-47
2022/01/22 07:20:56;;;;;;;4.60;2.73;;;1.40;99.90;;;;;;5008710;28;21205;-46
2022/01/22 07:23:53;;;;;;;5.10;3.23;;;1.30;99.90;;;;;;5008634;28;20471;-47
2022/01/22 07:26:11;;;;;;;4.47;2.90;;;1.40;99.90;;;;;;5007674;28;20479;-47
2022/01/22 07:28:39;;;;;;;3.17;2.87;;;1.40;99.90;;;;;;5010187;28;20977;-46
2022/01/22 07:31:05;;;;;;;3.00;2.70;;;1.40;99.90;;;;;;5011521;28;20518;-47
2022/01/22 07:33:32;;;;;;;4.73;3.33;;;1.50;99.90;;;;;;5011149;28;20494;-47
2022/01/22 07:36:00;;;;;;;3.70;3.23;;;1.60;99.90;;;;;;5005130;28;20511;-46
2022/01/22 07:38:27;;;;;;;3.40;3.10;;;1.60;99.90;;;;;;5004203;28;20455;-45
2022/01/22 07:40:53;;;;;;;3.37;2.87;;;1.60;99.90;;;;;;5008947;28;20984;-46
2022/01/22 07:43:20;;;;;;;4.17;3.17;;;1.70;99.90;;;;;;5009486;28;20487;-45
2022/01/22 07:45:46;;;;;;;4.20;3.27;;;1.80;99.90;;;;;;5004453;28;20859;-47
2022/01/22 07:48:13;;;;;;;4.87;3.03;;;1.80;99.90;;;;;;5007481;28;20467;-45
2022/01/22 07:50:40;;;;;;;4.83;2.70;;;2.00;99.90;;;;;;5008976;28;20515;-45
2022/01/22 07:53:08;;;;;;;3.70;2.90;;;2.00;99.90;;;;;;5006577;28;20518;-47
2022/01/22 07:55:34;;;;;;;7.70;3.50;;;2.10;74.50;;;;;;5006784;28;20587;-47
2022/01/22 07:58:01;;;;;;;4.47;3.07;;;2.20;36.20;;;;;;5011344;28;20538;-48
2022/01/22 08:00:27;;;;;;;3.30;3.10;;;2.20;29.10;;;;;;5007998;28;20500;-46
2022/01/22 08:02:54;;;;;;;7.97;3.60;;;2.20;40.90;;;;;;5011169;28;20479;-47
2022/01/22 08:05:20;;;;;;;4.03;3.00;;;2.10;48.10;;;;;;5008212;28;20491;-46
2022/01/22 08:07:47;;;;;;;7.60;3.30;;;2.10;43.80;;;;;;5006758;28;20490;-46
2022/01/22 08:10:16;;;;;;;7.93;3.17;;;2.10;37.20;;;;;;5012446;28;20486;-46
2022/01/22 08:12:44;;;;;;;4.60;3.47;;;2.10;33.20;;;;;;4992148;28;20456;-46
2022/01/22 08:15:13;;;;;;;6.77;3.37;;;2.10;28.80;;;;;;5022015;28;20450;-46
2022/01/22 08:17:40;;;;;;;5.73;4.10;;;2.10;29.60;;;;;;5009076;28;20482;-46
2022/01/22 08:20:08;;;;;;;3.60;3.30;;;2.20;29.80;;;;;;5000817;28;20547;-46
2022/01/22 08:22:35;;;;;;;4.77;3.60;;;2.20;22.10;;;;;;5010262;28;20566;-45
2022/01/22 08:25:01;;;;;;;5.73;3.50;;;2.30;22.40;;;;;;5008573;28;20890;-47
2022/01/22 08:27:39;;;;;;;3.90;3.53;;;2.40;31.70;;;;;;5019929;28;20486;-48
2022/01/22 08:30:08;;;;;;;9.73;4.87;;;2.50;45.00;;;;;;5012258;28;20467;-48
2022/01/22 08:32:45;;;;;;;8.23;4.73;;;2.70;44.00;;;;;;5012263;28;20559;-48
2022/01/22 08:37:55;;;;;;;7.50;4.23;;;3.00;99.90;;;;;;5016071;28;20454;-47
2022/01/22 08:40:22;;;;;;;5.13;3.83;;;3.40;99.90;;;;;;5011506;28;20483;-45
2022/01/22 08:42:50;;;;;;;4.00;3.60;;;3.70;99.90;;;;;;5009041;28;20566;-47
2022/01/22 08:45:17;;;;;;;9.60;3.93;;;4.00;99.90;;;;;;5014061;28;20858;-46
2022/01/22 08:47:43;;;;;;;10.60;3.80;;;3.80;99.90;;;;;;5010265;28;20582;-46
2022/01/22 08:50:10;;;;;;;3.50;2.50;;;3.50;99.90;;;;;;5003241;28;20562;-46
2022/01/22 08:52:37;;;;;;;4.40;3.07;;;3.20;99.90;;;;;;5008758;28;20581;-46
2022/01/22 08:55:05;;;;;;;4.63;2.80;;;3.10;99.90;;;;;;5012947;28;21019;-47
2022/01/22 08:57:32;;;;;;;7.50;3.50;;;3.10;99.90;;;;;;5011216;28;20939;-46
2022/01/22 09:00:00;;;;;;;4.97;3.73;;;3.00;99.90;;;;;;5005739;28;20456;-48
2022/01/22 09:02:28;;;;;;;3.37;2.80;;;2.90;99.90;;;;;;5011892;28;20977;-46
2022/01/22 09:04:55;;;;;;;3.63;3.23;;;2.90;99.90;;;;;;5022273;28;20458;-46
2022/01/22 09:07:22;;;;;;;6.23;4.00;;;2.90;99.90;;;;;;5010839;28;20532;-48
2022/01/22 09:09:49;;;;;;;4.53;3.60;;;2.80;99.90;;;;;;5011642;28;20463;-47
2022/01/22 09:12:16;;;;;;;8.27;3.67;;;2.90;99.90;;;;;;5009676;28;20495;-47
2022/01/22 09:14:43;;;;;;;5.20;3.17;;;2.80;99.90;;;;;;5011737;28;20510;-47
2022/01/22 09:17:11;;;;;;;2.97;2.63;;;2.70;99.90;;;;;;5001192;28;20481;-46
2022/01/22 09:19:38;;;;;;;8.70;3.77;;;2.70;99.90;;;;;;5004401;28;20463;-47
2022/01/22 09:22:07;;;;;;;8.50;3.93;;;2.70;99.90;;;;;;5009891;28;20472;-46
2022/01/22 09:24:34;;;;;;;5.70;3.43;;;2.70;99.90;;;;;;5006508;28;20491;-47
2022/01/22 09:27:04;;;;;;;5.40;3.63;;;2.70;99.90;;;;;;5012029;28;20483;-46
2022/01/22 09:29:31;;;;;;;5.60;3.50;;;2.80;99.90;;;;;;5013725;28;20474;-46
2022/01/22 09:31:58;;;;;;;5.10;3.43;;;2.80;99.90;;;;;;5012105;28;20460;-46
2022/01/22 09:34:26;;;;;;;7.10;3.80;;;2.80;99.90;;;;;;5014717;28;20460;-55
2022/01/22 09:36:53;;;;;;;6.80;3.87;;;2.80;99.90;;;;;;5006493;28;21193;-55
2022/01/22 09:39:19;;;;;;;7.53;3.50;;;2.80;99.90;;;;;;5006331;28;20519;-56
2022/01/22 09:41:46;;;;;;;3.43;3.13;;;2.80;99.90;;;;;;5008902;28;20551;-55
2022/01/22 09:44:13;;;;;;;8.63;4.00;;;2.90;99.90;;;;;;5011994;28;20491;-56
2022/01/22 09:46:40;;;;;;;8.47;4.03;;;2.90;99.90;;;;;;5013156;28;20491;-55
2022/01/22 09:49:07;;;;;;;8.20;4.03;;;2.90;99.90;;;;;;5010924;28;20466;-56
2022/01/22 09:51:35;;;;;;;6.40;3.50;;;2.90;99.90;;;;;;5017607;28;20542;-55
2022/01/22 09:54:01;;;;;;;4.23;3.07;;;3.00;99.90;;;;;;5011367;28;20499;-56
2022/01/22 09:56:30;;;;;;;6.40;3.90;;;3.10;99.90;;;;;;5004347;28;21919;-56
2022/01/22 09:58:56;;;;;;;5.13;4.10;;;3.20;99.90;;;;;;5010911;28;20466;-55
2022/01/22 10:01:26;;;;;;;9.50;3.90;;;3.40;99.90;;;;;;5008976;28;20539;-56
2022/01/22 10:03:55;;;;;;;5.43;4.00;;;3.80;99.90;;;;;;5004925;28;20482;-56
2022/01/22 10:06:23;;;;;;;8.47;4.40;;;4.00;99.90;;;;;;5010101;28;20520;-55
2022/01/22 10:08:55;;;;;;;28.90;20.47;;;3.90;99.90;;;;;;5011999;28;20455;-56
2022/01/22 10:11:25;;;;;;;15.47;9.10;;;4.60;99.90;;;;;;5012521;28;20455;-55
2022/01/22 10:13:53;;;;;;;16.73;10.40;;;5.90;99.90;;;;;;5019435;28;20466;-56
2022/01/22 10:16:23;;;;;;;24.00;15.40;;;5.50;99.90;;;;;;5011237;28;20534;-56
2022/01/22 10:19:10;;;;;;;6.90;5.87;;;6.80;99.90;;;;;;5008746;28;20460;-55
2022/01/22 10:21:38;;;;;;;9.47;4.17;;;7.60;26.40;;;;;;5009907;28;20514;-56
2022/01/22 10:24:29;;;;;;;7.60;4.23;;;6.50;24.40;;;;;;5009551;28;20496;-55
2022/01/22 10:27:28;;;;;;;9.30;4.67;;;6.60;99.90;;;;;;5004650;28;20514;-55
2022/01/22 10:29:57;;;;;;;6.07;4.00;;;6.00;99.90;;;;;;5014352;28;20464;-56
2022/01/22 10:32:33;;;;;;;7.50;3.00;;;5.10;99.90;;;;;;5007945;28;20466;-54
2022/01/22 10:35:05;;;;;;;6.20;3.23;;;4.80;99.90;;;;;;5007987;28;20522;-55
2022/01/22 10:37:31;;;;;;;4.67;2.37;;;4.90;99.90;;;;;;5002447;28;20482;-55
2022/01/22 10:40:18;;;;;;;5.07;2.40;;;4.40;99.90;;;;;;5006165;28;20538;-56
2022/01/22 10:42:44;;;;;;;4.43;3.07;;;4.10;99.90;;;;;;5004883;28;20495;-56
2022/01/22 10:45:19;;;;;;;4.73;2.53;;;4.00;99.90;;;;;;5010834;28;20491;-55
2022/01/22 10:47:46;;;;;;;2.33;1.63;;;4.00;99.90;;;;;;5007662;28;20575;-55
2022/01/22 10:50:20;;;;;;;5.73;2.77;;;4.20;99.90;;;;;;5011448;28;20463;-55
2022/01/22 10:52:48;;;;;;;4.30;1.97;;;4.00;99.90;;;;;;5009971;28;20884;-54
2022/01/22 10:55:15;;;;;;;2.93;1.87;;;4.20;99.90;;;;;;5007399;28;20447;-55
2022/01/22 10:58:06;;;;;;;3.30;1.70;;;4.30;99.90;;;;;;5011279;28;20838;-54
2022/01/22 11:00:32;;;;;;;3.53;1.70;;;4.30;99.90;;;;;;5009150;28;20823;-55
2022/01/22 11:02:59;;;;;;;7.90;2.57;;;4.10;99.90;;;;;;5006653;28;20491;-55
2022/01/22 11:05:37;;;;;;;6.87;2.20;;;4.00;99.90;;;;;;5013880;28;20486;-55
2022/01/22 11:08:12;;;;;;;2.83;2.53;;;4.00;99.90;;;;;;5006178;28;20483;-55
2022/01/22 11:10:40;;;;;;;4.87;3.20;;;4.00;99.90;;;;;;5001217;28;20952;-55
2022/01/22 11:13:08;;;;;;;4.27;3.00;;;4.00;99.90;;;;;;5009170;28;20460;-54
2022/01/22 11:15:35;;;;;;;8.87;3.13;;;3.90;99.90;;;;;;5008230;28;20491;-56
2022/01/22 11:18:03;;;;;;;6.20;2.80;;;3.70;99.90;;;;;;5008061;28;20905;-55
2022/01/22 11:20:31;;;;;;;3.13;2.50;;;3.70;99.90;;;;;;4999278;28;20502;-55
2022/01/22 11:22:59;;;;;;;3.17;1.87;;;3.70;99.90;;;;;;5004227;28;20563;-47
2022/01/22 11:25:27;;;;;;;4.40;2.30;;;3.70;99.90;;;;;;5013793;28;20483;-46
2022/01/22 11:27:54;;;;;;;2.97;2.27;;;3.80;81.60;;;;;;5003450;28;21103;-45
2022/01/22 11:30:25;;;;;;;5.70;3.20;;;3.80;99.90;;;;;;5010052;28;20460;-47
2022/01/22 11:32:55;;;;;;;3.03;2.80;;;4.00;99.60;;;;;;5007325;28;20961;-46
2022/01/22 11:35:24;;;;;;;5.80;2.93;;;4.10;99.90;;;;;;5004003;28;21022;-48
2022/01/22 11:37:55;;;;;;;5.00;3.00;;;4.10;99.90;;;;;;5008597;28;20483;-47
2022/01/22 11:40:23;;;;;;;5.00;3.53;;;4.00;99.90;;;;;;5006292;28;20609;-47
2022/01/22 11:42:58;;;;;;;3.57;2.70;;;4.00;99.90;;;;;;5009669;28;21016;-46
2022/01/22 11:45:29;;;;;;;5.13;2.50;;;4.00;99.90;;;;;;5008636;28;20460;-46
2022/01/22 11:48:17;;;;;;;2.83;2.10;;;4.00;99.90;;;;;;5009410;28;20484;-47
2022/01/22 11:50:46;;;;;;;6.20;3.20;;;3.90;99.90;;;;;;5004542;28;20871;-47
2022/01/22 11:53:24;;;;;;;5.13;4.50;;;3.90;99.90;;;;;;5013894;28;20495;-47
2022/01/22 11:56:23;;;;;;;19.00;11.53;;;3.90;99.90;;;;;;5014211;28;20971;-47
2022/01/22 11:59:22;;;;;;;17.43;11.70;;;3.90;99.90;;;;;;5049492;22;20513;-51
2022/01/22 12:02:06;;;;;;;6.33;3.00;;;3.80;99.90;;;;;;5046878;28;20561;-51
2022/01/22 12:05:02;;;;;;;4.03;2.57;;;3.70;99.90;;;;;;5049083;28;20454;-51
2022/01/22 12:07:35;;;;;;;6.60;2.93;;;3.70;99.90;;;;;;5042493;28;21017;-52
2022/01/22 12:16:15;;;;;;;9.90;3.20;;;3.80;99.90;;;;;;5026628;28;20496;-53
2022/01/22 12:18:54;;;;;;;4.23;2.63;;;3.80;99.90;;;;;;5036556;28;21044;-52
2022/01/22 12:21:35;;;;;;;7.97;3.70;;;3.80;99.90;;;;;;5025185;28;20508;-52
2022/01/22 12:24:05;;;;;;;4.53;2.80;;;3.90;99.90;;;;;;5033147;28;20508;-52
2022/01/22 12:26:53;;;;;;;6.87;3.17;;;3.90;99.90;;;;;;5028107;28;20554;-56
2022/01/22 12:29:41;;;;;;;3.87;3.57;;;4.00;99.90;;;;;;5022070;28;20454;-53
2022/01/22 12:32:15;;;;;;;5.17;3.63;;;4.00;99.90;;;;;;5024173;28;21048;-52
2022/01/22 12:35:17;;;;;;;9.30;3.80;;;4.10;94.30;;;;;;5026623;28;20462;-51
2022/01/22 12:38:02;;;;;;;9.47;3.40;;;4.00;99.90;;;;;;5029388;28;20470;-52
2022/01/22 12:40:33;;;;;;;5.33;3.20;;;4.00;99.90;;;;;;5025369;28;20462;-52
2022/01/22 12:43:06;;;;;;;8.23;3.63;;;4.10;99.90;;;;;;5023092;28;20455;-52
2022/01/22 12:45:35;;;;;;;3.70;3.40;;;4.10;99.90;;;;;;5028213;28;20489;-52
2022/01/22 12:48:02;;;;;;;5.80;4.20;;;4.10;99.90;;;;;;5027553;28;20494;-53
2022/01/22 12:50:34;;;;;;;5.90;3.77;;;4.40;99.90;;;;;;5025541;28;20554;-53
2022/01/22 12:53:07;;;;;;;9.30;3.93;;;4.40;99.90;;;;;;5026548;28;20542;-54
2022/01/22 12:56:02;;;;;;;6.63;3.30;;;4.50;99.90;;;;;;5027599;28;20983;-52
2022/01/22 12:58:30;;;;;;;6.50;3.43;;;4.50;99.90;;;;;;5029433;28;20525;-52
2022/01/22 13:01:16;;;;;;;9.13;3.37;;;4.30;99.90;;;;;;5026650;28;20573;-52
2022/01/22 13:03:44;;;;;;;3.70;3.30;;;4.40;99.90;;;;;;5028867;28;20465;-52
2022/01/22 13:06:13;;;;;;;4.97;3.20;;;4.50;99.90;;;;;;5031549;28;20497;-52
2022/01/22 13:08:40;;;;;;;5.53;3.20;;;4.50;99.90;;;;;;5030418;28;20573;-52
2022/01/22 13:11:08;;;;;;;2.93;2.73;;;4.50;99.90;;;;;;5033990;28;20493;-53
2022/01/22 13:13:36;;;;;;;2.70;2.50;;;4.50;99.90;;;;;;5032999;28;20447;-52
2022/01/22 13:16:08;;;;;;;4.40;2.20;;;4.50;99.90;;;;;;5032135;28;20479;-52
2022/01/22 13:18:47;;;;;;;4.77;2.70;;;4.50;99.90;;;;;;5028616;28;20554;-54
2022/01/22 13:21:17;;;;;;;6.80;2.43;;;4.50;99.90;;;;;;5032818;28;20933;-53
2022/01/22 13:23:46;;;;;;;5.03;2.30;;;4.40;99.90;;;;;;5036692;28;20907;-53
2022/01/22 13:26:13;;;;;;;4.30;2.17;;;4.50;99.90;;;;;;5039662;28;20482;-52
2022/01/22 13:28:40;;;;;;;5.20;2.07;;;4.60;99.90;;;;;;5027272;28;20483;-53
2022/01/22 13:31:12;;;;;;;6.00;2.80;;;4.80;99.90;;;;;;5032463;28;20451;-53
2022/01/22 13:33:44;;;;;;;3.00;2.23;;;5.10;30.40;;;;;;5033466;28;20887;-52
2022/01/22 13:39:32;;;;;;;3.57;2.33;;;5.00;29.20;;;;;;5028742;28;20557;-53
2022/01/22 13:47:46;;;;;;;2.70;2.50;;;4.50;99.90;;;;;;5025667;28;20477;-52
2022/01/22 13:50:14;;;;;;;4.30;2.50;;;4.50;99.90;;;;;;5032095;28;20455;-52
2022/01/22 13:52:41;;;;;;;5.57;2.70;;;4.40;99.90;;;;;;5032744;28;20963;-53
2022/01/22 13:55:14;;;;;;;4.37;2.60;;;4.40;99.90;;;;;;5032806;28;20459;-53
2022/01/22 13:57:42;;;;;;;3.33;2.70;;;4.40;99.90;;;;;;5031462;28;20523;-52
2022/01/22 14:00:11;;;;;;;3.00;2.80;;;4.50;99.90;;;;;;5032389;28;20490;-52
2022/01/22 14:03:02;;;;;;;3.90;2.90;;;4.70;99.90;;;;;;5028696;28;21363;-53
2022/01/22 14:05:32;;;;;;;5.07;2.87;;;4.80;99.90;;;;;;5032272;28;20943;-53
2022/01/22 14:08:01;;;;;;;10.40;2.90;;;4.60;99.90;;;;;;5032494;28;20493;-53
2022/01/22 14:10:31;;;;;;;5.97;2.73;;;4.60;99.90;;;;;;5027823;28;20463;-53
2022/01/22 14:13:05;;;;;;;3.97;2.70;;;4.70;99.90;;;;;;5032780;28;20447;-52
2022/01/22 14:15:34;;;;;;;3.20;2.40;;;4.70;99.90;;;;;;5032513;28;21022;-52
2022/01/22 14:18:13;;;;;;;5.80;2.50;;;4.60;99.90;;;;;;5022034;28;20462;-52
2022/01/22 14:20:41;;;;;;;3.40;2.50;;;4.60;99.90;;;;;;5031988;28;20537;-52
2022/01/22 14:23:09;;;;;;;3.13;2.03;;;4.60;99.90;;;;;;5032076;28;20474;-53
2022/01/22 14:25:38;;;;;;;3.43;2.30;;;4.60;99.90;;;;;;5032843;28;20489;-53
2022/01/22 14:28:09;;;;;;;2.50;2.30;;;4.50;99.90;;;;;;5031587;28;20573;-53
2022/01/22 14:30:44;;;;;;;3.30;2.37;;;4.50;99.90;;;;;;5032591;28;20504;-53